Laura, Illinois
Current Conditions -  °F | °C
As of 6:54 PM on Saturday 27 Dec 2014 (Local Time) from KPIA Reporting Station
Overcast Overcast  
Wind Chill: 25°   Ceiling: 1900
Heat Index: 34°   Visibility: 10mi
Dew Point: 25°   Wind: 12mph
Humidity: 70%   Direction: 300°WNW
Pressure: 30.16"   Gusts: NA
Location:  40.92°N, 89.93°W
Report Text: KPIA 280054Z 30010KT 10SM OVC019 01/M04 A3016 RMK AO2 SLP218 T00111039
Loading
Personal Weather Stations






























Interactive Weather Map New forecast layout! Learn more

10-Day Weather Forecast

Advertisements
Track Severe Weather on mobile